sensor_id;sensor_type;location;lat;lon;timestamp;temperature;humidity
5731;DHT22;2890;51.950;7.668;2022-07-23T05:59:26;17.20;99.90
5731;DHT22;2890;51.950;7.668;2022-07-23T06:31:19;19.00;99.90
5731;DHT22;2890;51.950;7.668;2022-07-23T06:33:47;19.70;99.90
5731;DHT22;2890;51.950;7.668;2022-07-23T06:36:13;19.80;99.90
5731;DHT22;2890;51.950;7.668;2022-07-23T06:38:40;19.90;99.90
5731;DHT22;2890;51.950;7.668;2022-07-23T06:41:07;20.10;99.90
5731;DHT22;2890;51.950;7.668;2022-07-23T06:43:34;20.30;99.90
5731;DHT22;2890;51.950;7.668;2022-07-23T06:46:00;20.50;99.90
5731;DHT22;2890;51.950;7.668;2022-07-23T06:48:27;20.30;99.90
5731;DHT22;2890;51.950;7.668;2022-07-23T06:50:56;20.40;99.90
5731;DHT22;2890;51.950;7.668;2022-07-23T06:53:23;20.40;99.90
5731;DHT22;2890;51.950;7.668;2022-07-23T06:55:49;20.60;99.90
5731;DHT22;2890;51.950;7.668;2022-07-23T06:58:16;20.80;99.90
5731;DHT22;2890;51.950;7.668;2022-07-23T07:00:44;20.70;99.90
5731;DHT22;2890;51.950;7.668;2022-07-23T07:03:11;20.80;99.90
5731;DHT22;2890;51.950;7.668;2022-07-23T07:05:38;20.90;99.90
5731;DHT22;2890;51.950;7.668;2022-07-23T07:08:07;21.20;99.90
5731;DHT22;2890;51.950;7.668;2022-07-23T07:10:34;21.00;99.90
5731;DHT22;2890;51.950;7.668;2022-07-23T07:13:00;21.40;99.90
5731;DHT22;2890;51.950;7.668;2022-07-23T07:15:27;21.70;99.90
5731;DHT22;2890;51.950;7.668;2022-07-23T07:17:54;22.20;99.90
5731;DHT22;2890;51.950;7.668;2022-07-23T07:20:20;22.60;99.90
5731;DHT22;2890;51.950;7.668;2022-07-23T07:22:48;23.30;99.90
5731;DHT22;2890;51.950;7.668;2022-07-23T07:25:16;23.80;99.90
5731;DHT22;2890;51.950;7.668;2022-07-23T07:27:43;24.20;99.90
5731;DHT22;2890;51.950;7.668;2022-07-23T07:30:11;24.40;99.90
5731;DHT22;2890;51.950;7.668;2022-07-23T07:32:38;24.40;99.90
5731;DHT22;2890;51.950;7.668;2022-07-23T07:35:06;24.80;99.90
5731;DHT22;2890;51.950;7.668;2022-07-23T07:37:33;25.50;99.90
5731;DHT22;2890;51.950;7.668;2022-07-23T07:39:59;25.60;99.90
5731;DHT22;2890;51.950;7.668;2022-07-23T07:42:27;26.00;99.90
5731;DHT22;2890;51.950;7.668;2022-07-23T07:44:54;26.70;99.90
5731;DHT22;2890;51.950;7.668;2022-07-23T07:47:21;28.50;87.40
5731;DHT22;2890;51.950;7.668;2022-07-23T07:49:48;28.80;68.70
5731;DHT22;2890;51.950;7.668;2022-07-23T07:52:14;28.80;62.10
5731;DHT22;2890;51.950;7.668;2022-07-23T07:54:41;29.60;58.30
5731;DHT22;2890;51.950;7.668;2022-07-23T07:57:08;31.20;43.00
5731;DHT22;2890;51.950;7.668;2022-07-23T07:59:36;32.00;29.90
5731;DHT22;2890;51.950;7.668;2022-07-23T08:02:03;33.10;23.60
5731;DHT22;2890;51.950;7.668;2022-07-23T08:04:30;33.30;19.60
5731;DHT22;2890;51.950;7.668;2022-07-23T08:06:56;34.00;15.60
5731;DHT22;2890;51.950;7.668;2022-07-23T08:09:23;35.10;5.90
5731;DHT22;2890;51.950;7.668;2022-07-23T08:11:50;36.80;1.00
5731;DHT22;2890;51.950;7.668;2022-07-23T08:14:17;36.10;1.00
5731;DHT22;2890;51.950;7.668;2022-07-23T08:16:45;34.00;1.10
5731;DHT22;2890;51.950;7.668;2022-07-23T08:19:12;33.00;8.20
5731;DHT22;2890;51.950;7.668;2022-07-23T08:21:38;32.60;4.80
5731;DHT22;2890;51.950;7.668;2022-07-23T08:24:05;33.30;5.20
5731;DHT22;2890;51.950;7.668;2022-07-23T08:26:32;34.90;1.00
5731;DHT22;2890;51.950;7.668;2022-07-23T08:28:59;37.10;1.00
5731;DHT22;2890;51.950;7.668;2022-07-23T08:31:26;38.80;1.00
5731;DHT22;2890;51.950;7.668;2022-07-23T08:33:54;39.60;1.00
5731;DHT22;2890;51.950;7.668;2022-07-23T08:36:22;39.30;1.00
5731;DHT22;2890;51.950;7.668;2022-07-23T08:38:48;37.30;1.00
5731;DHT22;2890;51.950;7.668;2022-07-23T08:41:16;35.80;1.00
5731;DHT22;2890;51.950;7.668;2022-07-23T08:43:44;34.70;1.00
5731;DHT22;2890;51.950;7.668;2022-07-23T08:46:12;33.80;1.00
5731;DHT22;2890;51.950;7.668;2022-07-23T08:48:40;34.30;1.00
5731;DHT22;2890;51.950;7.668;2022-07-23T08:51:08;35.80;1.00
5731;DHT22;2890;51.950;7.668;2022-07-23T08:53:36;37.30;1.00
5731;DHT22;2890;51.950;7.668;2022-07-23T08:56:04;36.00;1.00
5731;DHT22;2890;51.950;7.668;2022-07-23T08:58:31;34.10;1.00
5731;DHT22;2890;51.950;7.668;2022-07-23T09:00:59;33.60;1.00
5731;DHT22;2890;51.950;7.668;2022-07-23T09:03:27;35.00;1.00
5731;DHT22;2890;51.950;7.668;2022-07-23T09:05:54;36.70;1.00
5731;DHT22;2890;51.950;7.668;2022-07-23T09:08:25;37.80;1.00
5731;DHT22;2890;51.950;7.668;2022-07-23T09:10:54;38.90;1.00
5731;DHT22;2890;51.950;7.668;2022-07-23T09:13:27;39.40;1.00
5731;DHT22;2890;51.950;7.668;2022-07-23T09:15:56;39.00;1.00
5731;DHT22;2890;51.950;7.668;2022-07-23T09:18:42;37.00;1.00
5731;DHT22;2890;51.950;7.668;2022-07-23T09:21:18;34.60;1.00
5731;DHT22;2890;51.950;7.668;2022-07-23T09:23:48;33.00;1.00
5731;DHT22;2890;51.950;7.668;2022-07-23T09:26:24;32.80;1.00
5731;DHT22;2890;51.950;7.668;2022-07-23T09:28:54;33.00;1.00
5731;DHT22;2890;51.950;7.668;2022-07-23T09:31:21;33.70;1.00
5731;DHT22;2890;51.950;7.668;2022-07-23T09:33:48;34.60;1.00
5731;DHT22;2890;51.950;7.668;2022-07-23T09:36:15;35.60;1.00
5731;DHT22;2890;51.950;7.668;2022-07-23T09:38:54;36.50;1.00
5731;DHT22;2890;51.950;7.668;2022-07-23T09:41:20;35.50;1.00
5731;DHT22;2890;51.950;7.668;2022-07-23T09:43:54;34.50;1.00
5731;DHT22;2890;51.950;7.668;2022-07-23T09:46:23;34.30;1.00
5731;DHT22;2890;51.950;7.668;2022-07-23T09:48:50;35.20;1.00
5731;DHT22;2890;51.950;7.668;2022-07-23T09:51:18;35.50;1.00
5731;DHT22;2890;51.950;7.668;2022-07-23T09:53:49;36.10;1.00
5731;DHT22;2890;51.950;7.668;2022-07-23T09:56:17;36.60;1.00
5731;DHT22;2890;51.950;7.668;2022-07-23T09:58:50;36.70;1.00
5731;DHT22;2890;51.950;7.668;2022-07-23T10:01:17;37.80;1.00
5731;DHT22;2890;51.950;7.668;2022-07-23T10:03:46;38.50;1.00
5731;DHT22;2890;51.950;7.668;2022-07-23T10:06:14;39.40;1.00
5731;DHT22;2890;51.950;7.668;2022-07-23T10:08:41;40.60;1.00
5731;DHT22;2890;51.950;7.668;2022-07-23T10:11:11;41.10;1.00
5731;DHT22;2890;51.950;7.668;2022-07-23T10:13:42;41.10;1.00
5731;DHT22;2890;51.950;7.668;2022-07-23T10:16:23;41.40;1.00
5731;DHT22;2890;51.950;7.668;2022-07-23T10:18:49;42.50;1.00
5731;DHT22;2890;51.950;7.668;2022-07-23T10:21:23;43.60;1.00
5731;DHT22;2890;51.950;7.668;2022-07-23T10:24:01;44.20;1.00
5731;DHT22;2890;51.950;7.668;2022-07-23T10:26:35;44.90;1.00
5731;DHT22;2890;51.950;7.668;2022-07-23T10:29:13;45.60;1.00
5731;DHT22;2890;51.950;7.668;2022-07-23T10:31:50;46.20;1.00
5731;DHT22;2890;51.950;7.668;2022-07-23T10:34:23;46.40;1.00
5731;DHT22;2890;51.950;7.668;2022-07-23T10:36:55;46.70;1.00
5731;DHT22;2890;51.950;7.668;2022-07-23T10:39:26;46.70;1.00
5731;DHT22;2890;51.950;7.668;2022-07-23T10:42:07;47.00;1.00
5731;DHT22;2890;51.950;7.668;2022-07-23T10:44:40;46.50;1.00
5731;DHT22;2890;51.950;7.668;2022-07-23T10:47:08;47.00;1.00
5731;DHT22;2890;51.950;7.668;2022-07-23T10:50:16;47.80;1.00
5731;DHT22;2890;51.950;7.668;2022-07-23T10:53:15;47.20;1.00
5731;DHT22;2890;51.950;7.668;2022-07-23T10:55:50;47.20;1.00
5731;DHT22;2890;51.950;7.668;2022-07-23T10:58:22;47.20;1.00
5731;DHT22;2890;51.950;7.668;2022-07-23T11:00:51;47.30;1.00
5731;DHT22;2890;51.950;7.668;2022-07-23T11:03:32;47.40;1.00
5731;DHT22;2890;51.950;7.668;2022-07-23T11:06:02;47.40;1.00
5731;DHT22;2890;51.950;7.668;2022-07-23T11:08:29;47.50;1.00
5731;DHT22;2890;51.950;7.668;2022-07-23T11:11:08;47.40;1.00
5731;DHT22;2890;51.950;7.668;2022-07-23T11:13:46;47.30;1.00
5731;DHT22;2890;51.950;7.668;2022-07-23T11:16:24;46.70;1.00
5731;DHT22;2890;51.950;7.668;2022-07-23T11:19:05;47.10;1.00
5731;DHT22;2890;51.950;7.668;2022-07-23T11:21:46;47.20;1.00
5731;DHT22;2890;51.950;7.668;2022-07-23T11:24:18;47.20;1.00
5731;DHT22;2890;51.950;7.668;2022-07-23T11:26:56;45.60;1.00
5731;DHT22;2890;51.950;7.668;2022-07-23T11:29:53;43.70;1.00
5731;DHT22;2890;51.950;7.668;2022-07-23T11:32:38;43.80;1.00
5731;DHT22;2890;51.950;7.668;2022-07-23T11:35:22;43.00;1.00
5731;DHT22;2890;51.950;7.668;2022-07-23T11:37:50;42.70;1.00
5731;DHT22;2890;51.950;7.668;2022-07-23T11:40:19;42.00;1.00
5731;DHT22;2890;51.950;7.668;2022-07-23T11:42:54;40.70;1.00
5731;DHT22;2890;51.950;7.668;2022-07-23T11:45:22;39.30;1.00
5731;DHT22;2890;51.950;7.668;2022-07-23T11:47:51;38.20;1.00
5731;DHT22;2890;51.950;7.668;2022-07-23T11:50:18;37.10;1.00
5731;DHT22;2890;51.950;7.668;2022-07-23T11:52:45;36.40;1.00
5731;DHT22;2890;51.950;7.668;2022-07-23T11:55:12;36.00;1.00
5731;DHT22;2890;51.950;7.668;2022-07-23T11:57:42;35.70;1.00
5731;DHT22;2890;51.950;7.668;2022-07-23T12:00:11;34.80;1.00
5731;DHT22;2890;51.950;7.668;2022-07-23T12:02:39;34.50;1.00
5731;DHT22;2890;51.950;7.668;2022-07-23T12:05:08;34.40;1.00
5731;DHT22;2890;51.950;7.668;2022-07-23T12:07:39;33.90;1.00
5731;DHT22;2890;51.950;7.668;2022-07-23T12:10:11;33.40;1.00
5731;DHT22;2890;51.950;7.668;2022-07-23T12:12:40;33.10;1.00
5731;DHT22;2890;51.950;7.668;2022-07-23T12:15:08;33.00;1.00
5731;DHT22;2890;51.950;7.668;2022-07-23T12:17:37;33.20;1.00
5731;DHT22;2890;51.950;7.668;2022-07-23T12:20:07;33.10;1.00
5731;DHT22;2890;51.950;7.668;2022-07-23T12:22:37;32.70;1.00
5731;DHT22;2890;51.950;7.668;2022-07-23T12:25:06;32.30;1.00
5731;DHT22;2890;51.950;7.668;2022-07-23T12:27:34;32.10;1.00
5731;DHT22;2890;51.950;7.668;2022-07-23T12:30:22;32.30;1.00
5731;DHT22;2890;51.950;7.668;2022-07-23T12:32:51;32.00;1.00
5731;DHT22;2890;51.950;7.668;2022-07-23T12:35:20;32.00;1.00
5731;DHT22;2890;51.950;7.668;2022-07-23T12:37:50;32.10;1.00
5731;DHT22;2890;51.950;7.668;2022-07-23T12:40:23;31.90;1.00
5731;DHT22;2890;51.950;7.668;2022-07-23T12:42:52;31.90;1.00
5731;DHT22;2890;51.950;7.668;2022-07-23T12:45:19;31.70;1.00
5731;DHT22;2890;51.950;7.668;2022-07-23T12:48:07;31.40;1.00
5731;DHT22;2890;51.950;7.668;2022-07-23T12:50:44;31.20;1.00
5731;DHT22;2890;51.950;7.668;2022-07-23T12:53:14;31.00;1.00
5731;DHT22;2890;51.950;7.668;2022-07-23T12:55:42;31.20;1.00
5731;DHT22;2890;51.950;7.668;2022-07-23T12:58:13;31.40;1.00
5731;DHT22;2890;51.950;7.668;2022-07-23T13:01:01;31.00;1.00
5731;DHT22;2890;51.950;7.668;2022-07-23T13:03:35;31.10;1.00
5731;DHT22;2890;51.950;7.668;2022-07-23T13:06:05;30.70;1.00
5731;DHT22;2890;51.950;7.668;2022-07-23T13:08:33;30.70;1.00
5731;DHT22;2890;51.950;7.668;2022-07-23T13:11:01;30.70;1.00
5731;DHT22;2890;51.950;7.668;2022-07-23T13:13:29;30.60;1.00
5731;DHT22;2890;51.950;7.668;2022-07-23T13:15:57;30.60;1.00
5731;DHT22;2890;51.950;7.668;2022-07-23T13:18:25;30.40;1.00
5731;DHT22;2890;51.950;7.668;2022-07-23T13:20:52;30.20;1.00
5731;DHT22;2890;51.950;7.668;2022-07-23T13:23:21;30.20;1.00
5731;DHT22;2890;51.950;7.668;2022-07-23T13:25:49;30.00;1.00
5731;DHT22;2890;51.950;7.668;2022-07-23T13:28:17;29.90;1.00
5731;DHT22;2890;51.950;7.668;2022-07-23T13:30:45;30.10;1.00
5731;DHT22;2890;51.950;7.668;2022-07-23T13:33:13;30.00;1.00
5731;DHT22;2890;51.950;7.668;2022-07-23T13:35:40;30.00;1.00
5731;DHT22;2890;51.950;7.668;2022-07-23T13:38:07;29.80;1.00
5731;DHT22;2890;51.950;7.668;2022-07-23T13:40:35;29.50;1.00
5731;DHT22;2890;51.950;7.668;2022-07-23T13:43:04;29.40;1.00
5731;DHT22;2890;51.950;7.668;2022-07-23T13:45:31;29.40;1.00
5731;DHT22;2890;51.950;7.668;2022-07-23T13:47:58;29.40;1.00
5731;DHT22;2890;51.950;7.668;2022-07-23T13:50:24;29.40;1.00
5731;DHT22;2890;51.950;7.668;2022-07-23T13:52:51;29.40;1.00
5731;DHT22;2890;51.950;7.668;2022-07-23T13:55:18;29.50;1.00
5731;DHT22;2890;51.950;7.668;2022-07-23T13:57:46;29.50;1.00
5731;DHT22;2890;51.950;7.668;2022-07-23T14:00:13;29.40;1.00
5731;DHT22;2890;51.950;7.668;2022-07-23T14:02:40;29.30;1.00
5731;DHT22;2890;51.950;7.668;2022-07-23T14:05:09;29.30;1.00
5731;DHT22;2890;51.950;7.668;2022-07-23T14:07:36;29.40;1.00
5731;DHT22;2890;51.950;7.668;2022-07-23T14:10:04;29.40;1.00
5731;DHT22;2890;51.950;7.668;2022-07-23T14:12:32;29.40;1.00
5731;DHT22;2890;51.950;7.668;2022-07-23T14:15:00;29.20;1.00
5731;DHT22;2890;51.950;7.668;2022-07-23T14:17:27;29.10;1.00
5731;DHT22;2890;51.950;7.668;2022-07-23T14:19:53;29.00;1.00
5731;DHT22;2890;51.950;7.668;2022-07-23T14:22:20;29.10;1.00
5731;DHT22;2890;51.950;7.668;2022-07-23T14:24:47;29.20;1.00
5731;DHT22;2890;51.950;7.668;2022-07-23T14:27:14;29.20;1.00
5731;DHT22;2890;51.950;7.668;2022-07-23T14:29:41;29.50;1.00
5731;DHT22;2890;51.950;7.668;2022-07-23T14:32:09;29.70;1.00
5731;DHT22;2890;51.950;7.668;2022-07-23T14:34:36;29.60;1.00
5731;DHT22;2890;51.950;7.668;2022-07-23T14:37:03;29.40;1.00
5731;DHT22;2890;51.950;7.668;2022-07-23T14:39:29;29.10;1.00
5731;DHT22;2890;51.950;7.668;2022-07-23T14:41:56;29.10;1.00
5731;DHT22;2890;51.950;7.668;2022-07-23T14:44:23;29.10;1.00
5731;DHT22;2890;51.950;7.668;2022-07-23T14:46:50;28.90;1.00
5731;DHT22;2890;51.950;7.668;2022-07-23T14:49:18;28.90;1.00
5731;DHT22;2890;51.950;7.668;2022-07-23T14:51:45;28.80;1.00
5731;DHT22;2890;51.950;7.668;2022-07-23T14:54:11;28.70;1.30
5731;DHT22;2890;51.950;7.668;2022-07-23T14:56:39;28.70;2.40
5731;DHT22;2890;51.950;7.668;2022-07-23T14:59:06;28.60;1.00
5731;DHT22;2890;51.950;7.668;2022-07-23T15:01:33;28.50;1.00
5731;DHT22;2890;51.950;7.668;2022-07-23T15:04:00;28.50;1.00
5731;DHT22;2890;51.950;7.668;2022-07-23T15:06:28;28.40;1.00
5731;DHT22;2890;51.950;7.668;2022-07-23T15:08:55;28.40;1.30
5731;DHT22;2890;51.950;7.668;2022-07-23T15:11:22;28.30;2.50
5731;DHT22;2890;51.950;7.668;2022-07-23T15:13:49;28.10;2.70
5731;DHT22;2890;51.950;7.668;2022-07-23T15:16:16;28.10;2.70
5731;DHT22;2890;51.950;7.668;2022-07-23T15:18:43;28.00;1.80
5731;DHT22;2890;51.950;7.668;2022-07-23T15:21:09;27.90;4.20
5731;DHT22;2890;51.950;7.668;2022-07-23T15:23:38;27.70;3.70
5731;DHT22;2890;51.950;7.668;2022-07-23T15:26:06;27.70;4.40
5731;DHT22;2890;51.950;7.668;2022-07-23T15:28:33;27.70;4.70
5731;DHT22;2890;51.950;7.668;2022-07-23T15:31:00;27.70;4.50
5731;DHT22;2890;51.950;7.668;2022-07-23T15:33:27;27.60;5.70
5731;DHT22;2890;51.950;7.668;2022-07-23T15:35:54;27.60;6.40
5731;DHT22;2890;51.950;7.668;2022-07-23T15:38:23;27.50;7.10
5731;DHT22;2890;51.950;7.668;2022-07-23T15:40:51;27.50;7.20
5731;DHT22;2890;51.950;7.668;2022-07-23T15:43:18;27.40;8.80
5731;DHT22;2890;51.950;7.668;2022-07-23T15:45:45;27.10;9.10
5731;DHT22;2890;51.950;7.668;2022-07-23T15:48:12;27.10;11.20
5731;DHT22;2890;51.950;7.668;2022-07-23T15:50:40;27.00;9.70
5731;DHT22;2890;51.950;7.668;2022-07-23T15:53:07;27.00;9.60
5731;DHT22;2890;51.950;7.668;2022-07-23T15:55:34;26.90;9.50
5731;DHT22;2890;51.950;7.668;2022-07-23T15:58:02;27.00;11.40
5731;DHT22;2890;51.950;7.668;2022-07-23T16:00:29;26.80;9.70
5731;DHT22;2890;51.950;7.668;2022-07-23T16:02:56;26.70;11.20
5731;DHT22;2890;51.950;7.668;2022-07-23T16:05:23;26.60;12.20
5731;DHT22;2890;51.950;7.668;2022-07-23T16:07:50;26.40;13.60
5731;DHT22;2890;51.950;7.668;2022-07-23T16:10:16;26.20;13.60
5731;DHT22;2890;51.950;7.668;2022-07-23T16:12:43;26.20;15.00
5731;DHT22;2890;51.950;7.668;2022-07-23T16:15:12;26.20;15.40
5731;DHT22;2890;51.950;7.668;2022-07-23T16:17:39;26.20;13.60
5731;DHT22;2890;51.950;7.668;2022-07-23T16:20:06;26.20;14.40
5731;DHT22;2890;51.950;7.668;2022-07-23T16:22:35;26.30;15.20
5731;DHT22;2890;51.950;7.668;2022-07-23T16:25:03;26.30;15.90
5731;DHT22;2890;51.950;7.668;2022-07-23T16:27:31;26.20;15.30
5731;DHT22;2890;51.950;7.668;2022-07-23T16:29:58;26.20;16.10
5731;DHT22;2890;51.950;7.668;2022-07-23T16:32:27;26.00;17.00
5731;DHT22;2890;51.950;7.668;2022-07-23T16:34:54;26.00;17.40
5731;DHT22;2890;51.950;7.668;2022-07-23T16:37:21;26.00;18.60
5731;DHT22;2890;51.950;7.668;2022-07-23T16:39:48;25.90;17.90
5731;DHT22;2890;51.950;7.668;2022-07-23T16:42:15;25.80;18.00
5731;DHT22;2890;51.950;7.668;2022-07-23T16:44:42;25.90;17.90
5731;DHT22;2890;51.950;7.668;2022-07-23T16:47:09;25.90;18.70
5731;DHT22;2890;51.950;7.668;2022-07-23T16:49:37;25.90;18.20
5731;DHT22;2890;51.950;7.668;2022-07-23T16:52:04;25.80;18.40
5731;DHT22;2890;51.950;7.668;2022-07-23T16:54:31;25.70;17.90
5731;DHT22;2890;51.950;7.668;2022-07-23T16:56:58;25.70;18.30
5731;DHT22;2890;51.950;7.668;2022-07-23T16:59:25;25.60;18.60
5731;DHT22;2890;51.950;7.668;2022-07-23T17:01:52;25.50;20.50
5731;DHT22;2890;51.950;7.668;2022-07-23T17:04:19;25.50;19.70
5731;DHT22;2890;51.950;7.668;2022-07-23T17:06:47;25.30;20.50
5731;DHT22;2890;51.950;7.668;2022-07-23T17:09:14;25.20;21.50
5731;DHT22;2890;51.950;7.668;2022-07-23T17:11:41;25.10;21.20
5731;DHT22;2890;51.950;7.668;2022-07-23T17:14:08;25.00;22.40
5731;DHT22;2890;51.950;7.668;2022-07-23T17:16:35;25.00;22.90
5731;DHT22;2890;51.950;7.668;2022-07-23T17:19:04;24.90;22.70
5731;DHT22;2890;51.950;7.668;2022-07-23T17:21:31;24.80;24.50
5731;DHT22;2890;51.950;7.668;2022-07-23T17:23:59;24.80;24.30
5731;DHT22;2890;51.950;7.668;2022-07-23T17:26:26;24.80;24.90
5731;DHT22;2890;51.950;7.668;2022-07-23T17:28:53;24.70;25.60
5731;DHT22;2890;51.950;7.668;2022-07-23T17:31:20;24.70;25.50
5731;DHT22;2890;51.950;7.668;2022-07-23T17:33:47;24.50;26.70
5731;DHT22;2890;51.950;7.668;2022-07-23T17:36:14;24.60;26.90
5731;DHT22;2890;51.950;7.668;2022-07-23T17:38:41;24.50;26.90
5731;DHT22;2890;51.950;7.668;2022-07-23T17:41:09;24.40;27.10
5731;DHT22;2890;51.950;7.668;2022-07-23T17:43:36;24.30;28.50
5731;DHT22;2890;51.950;7.668;2022-07-23T17:46:03;24.20;29.00
5731;DHT22;2890;51.950;7.668;2022-07-23T17:48:30;24.20;29.20
5731;DHT22;2890;51.950;7.668;2022-07-23T17:50:57;24.10;29.60
5731;DHT22;2890;51.950;7.668;2022-07-23T17:53:24;24.10;29.70
5731;DHT22;2890;51.950;7.668;2022-07-23T17:55:52;24.00;32.40
5731;DHT22;2890;51.950;7.668;2022-07-23T17:58:21;23.90;31.20
5731;DHT22;2890;51.950;7.668;2022-07-23T18:00:48;23.90;30.50
5731;DHT22;2890;51.950;7.668;2022-07-23T18:03:15;23.90;31.50
5731;DHT22;2890;51.950;7.668;2022-07-23T18:05:42;23.90;33.10
5731;DHT22;2890;51.950;7.668;2022-07-23T18:08:08;23.80;31.10
5731;DHT22;2890;51.950;7.668;2022-07-23T18:10:36;23.70;31.70
5731;DHT22;2890;51.950;7.668;2022-07-23T18:13:04;23.70;32.10
5731;DHT22;2890;51.950;7.668;2022-07-23T18:15:34;23.70;32.60
5731;DHT22;2890;51.950;7.668;2022-07-23T18:18:01;23.70;35.10
5731;DHT22;2890;51.950;7.668;2022-07-23T18:20:28;23.70;36.00
5731;DHT22;2890;51.950;7.668;2022-07-23T18:22:55;23.60;34.90
5731;DHT22;2890;51.950;7.668;2022-07-23T18:25:22;23.50;34.50
5731;DHT22;2890;51.950;7.668;2022-07-23T18:27:49;23.40;35.30
5731;DHT22;2890;51.950;7.668;2022-07-23T18:30:16;23.50;36.80
5731;DHT22;2890;51.950;7.668;2022-07-23T18:32:44;23.40;38.80
5731;DHT22;2890;51.950;7.668;2022-07-23T18:35:11;23.30;38.00
5731;DHT22;2890;51.950;7.668;2022-07-23T18:37:38;23.30;39.30
5731;DHT22;2890;51.950;7.668;2022-07-23T18:40:06;23.20;40.80
5731;DHT22;2890;51.950;7.668;2022-07-23T18:42:34;23.20;40.00
5731;DHT22;2890;51.950;7.668;2022-07-23T18:45:03;23.10;39.50
5731;DHT22;2890;51.950;7.668;2022-07-23T18:47:30;23.00;41.70
5731;DHT22;2890;51.950;7.668;2022-07-23T18:49:58;23.00;42.40
5731;DHT22;2890;51.950;7.668;2022-07-23T18:52:25;22.90;43.00
5731;DHT22;2890;51.950;7.668;2022-07-23T18:54:52;22.90;43.00
5731;DHT22;2890;51.950;7.668;2022-07-23T18:57:19;22.80;42.10
5731;DHT22;2890;51.950;7.668;2022-07-23T18:59:46;22.70;43.50
5731;DHT22;2890;51.950;7.668;2022-07-23T19:02:13;22.60;43.40
5731;DHT22;2890;51.950;7.668;2022-07-23T19:04:40;22.60;44.90
5731;DHT22;2890;51.950;7.668;2022-07-23T19:07:09;22.50;46.40
5731;DHT22;2890;51.950;7.668;2022-07-23T19:09:36;22.50;46.80
5731;DHT22;2890;51.950;7.668;2022-07-23T19:12:03;22.40;48.80
5731;DHT22;2890;51.950;7.668;2022-07-23T19:14:30;22.30;48.60
5731;DHT22;2890;51.950;7.668;2022-07-23T19:16:57;22.20;51.90
5731;DHT22;2890;51.950;7.668;2022-07-23T19:19:24;22.20;51.70
5731;DHT22;2890;51.950;7.668;2022-07-23T19:21:51;22.20;52.00
5731;DHT22;2890;51.950;7.668;2022-07-23T19:24:19;22.10;53.10
5731;DHT22;2890;51.950;7.668;2022-07-23T19:26:46;22.10;55.00
5731;DHT22;2890;51.950;7.668;2022-07-23T19:29:13;22.00;57.30
5731;DHT22;2890;51.950;7.668;2022-07-23T19:36:35;21.90;59.60
5731;DHT22;2890;51.950;7.668;2022-07-23T19:39:02;21.90;59.80
5731;DHT22;2890;51.950;7.668;2022-07-23T19:41:31;21.70;60.40
5731;DHT22;2890;51.950;7.668;2022-07-23T19:43:57;21.60;61.00
5731;DHT22;2890;51.950;7.668;2022-07-23T19:46:24;21.60;61.20
5731;DHT22;2890;51.950;7.668;2022-07-23T19:48:51;21.50;62.00
5731;DHT22;2890;51.950;7.668;2022-07-23T19:51:18;21.40;62.40
5731;DHT22;2890;51.950;7.668;2022-07-23T19:53:47;21.30;62.90
5731;DHT22;2890;51.950;7.668;2022-07-23T19:56:14;21.30;63.40
5731;DHT22;2890;51.950;7.668;2022-07-23T19:58:47;21.20;64.50
5731;DHT22;2890;51.950;7.668;2022-07-23T20:01:14;21.20;64.40
5731;DHT22;2890;51.950;7.668;2022-07-23T20:03:41;21.10;65.60
5731;DHT22;2890;51.950;7.668;2022-07-23T20:06:08;21.10;65.60
5731;DHT22;2890;51.950;7.668;2022-07-23T20:08:35;21.10;66.60
5731;DHT22;2890;51.950;7.668;2022-07-23T20:11:02;21.00;67.20
5731;DHT22;2890;51.950;7.668;2022-07-23T20:13:29;21.00;67.60
5731;DHT22;2890;51.950;7.668;2022-07-23T20:15:58;20.90;69.00
5731;DHT22;2890;51.950;7.668;2022-07-23T20:18:24;20.90;69.10
5731;DHT22;2890;51.950;7.668;2022-07-23T20:20:53;20.90;68.80
5731;DHT22;2890;51.950;7.668;2022-07-23T20:23:22;20.80;69.00
5731;DHT22;2890;51.950;7.668;2022-07-23T20:28:17;20.80;69.80
5731;DHT22;2890;51.950;7.668;2022-07-23T20:30:44;20.70;70.40
5731;DHT22;2890;51.950;7.668;2022-07-23T20:33:13;20.70;71.20
5731;DHT22;2890;51.950;7.668;2022-07-23T20:35:40;20.60;71.50
5731;DHT22;2890;51.950;7.668;2022-07-23T20:38:07;20.60;72.40
5731;DHT22;2890;51.950;7.668;2022-07-23T20:40:35;20.50;72.50
5731;DHT22;2890;51.950;7.668;2022-07-23T20:43:04;20.50;72.50
5731;DHT22;2890;51.950;7.668;2022-07-23T20:45:31;20.50;74.00
5731;DHT22;2890;51.950;7.668;2022-07-23T20:47:59;20.40;74.80
5731;DHT22;2890;51.950;7.668;2022-07-23T20:50:27;20.30;75.30
5731;DHT22;2890;51.950;7.668;2022-07-23T20:52:54;20.20;75.60
5731;DHT22;2890;51.950;7.668;2022-07-23T20:55:21;20.20;76.30
5731;DHT22;2890;51.950;7.668;2022-07-23T20:57:48;20.20;77.30
5731;DHT22;2890;51.950;7.668;2022-07-23T21:00:15;20.10;77.90
5731;DHT22;2890;51.950;7.668;2022-07-23T21:02:42;20.10;78.90
5731;DHT22;2890;51.950;7.668;2022-07-23T21:05:09;20.10;80.60
5731;DHT22;2890;51.950;7.668;2022-07-23T21:07:38;20.00;82.20
5731;DHT22;2890;51.950;7.668;2022-07-23T21:10:07;19.90;82.70
5731;DHT22;2890;51.950;7.668;2022-07-23T21:12:34;19.90;82.90
5731;DHT22;2890;51.950;7.668;2022-07-23T21:15:01;19.80;82.70
5731;DHT22;2890;51.950;7.668;2022-07-23T21:17:28;19.80;83.00
5731;DHT22;2890;51.950;7.668;2022-07-23T21:19:54;19.80;84.00
5731;DHT22;2890;51.950;7.668;2022-07-23T21:22:21;19.70;83.50
5731;DHT22;2890;51.950;7.668;2022-07-23T21:24:49;19.60;84.80
5731;DHT22;2890;51.950;7.668;2022-07-23T21:27:16;19.60;85.30
5731;DHT22;2890;51.950;7.668;2022-07-23T21:29:43;19.60;86.70
5731;DHT22;2890;51.950;7.668;2022-07-23T21:32:10;19.50;87.10
5731;DHT22;2890;51.950;7.668;2022-07-23T21:34:37;19.50;88.50
5731;DHT22;2890;51.950;7.668;2022-07-23T21:37:04;19.50;89.50
5731;DHT22;2890;51.950;7.668;2022-07-23T21:39:31;19.40;89.90
5731;DHT22;2890;51.950;7.668;2022-07-23T21:41:59;19.40;90.30
5731;DHT22;2890;51.950;7.668;2022-07-23T21:44:25;19.30;91.20
5731;DHT22;2890;51.950;7.668;2022-07-23T21:46:52;19.30;91.80
5731;DHT22;2890;51.950;7.668;2022-07-23T21:49:19;19.30;91.70
5731;DHT22;2890;51.950;7.668;2022-07-23T21:51:46;19.20;91.60
5731;DHT22;2890;51.950;7.668;2022-07-23T21:54:12;19.20;91.80
5731;DHT22;2890;51.950;7.668;2022-07-23T21:56:39;19.20;91.90
5731;DHT22;2890;51.950;7.668;2022-07-23T21:59:07;19.10;92.00
5731;DHT22;2890;51.950;7.668;2022-07-23T22:01:34;19.10;92.10
5731;DHT22;2890;51.950;7.668;2022-07-23T22:04:01;19.10;92.50
5731;DHT22;2890;51.950;7.668;2022-07-23T22:06:30;19.10;93.10
5731;DHT22;2890;51.950;7.668;2022-07-23T22:08:56;19.10;93.30
5731;DHT22;2890;51.950;7.668;2022-07-23T22:11:23;19.00;93.80
5731;DHT22;2890;51.950;7.668;2022-07-23T22:13:50;19.10;94.30
5731;DHT22;2890;51.950;7.668;2022-07-23T22:16:18;19.00;94.50
5731;DHT22;2890;51.950;7.668;2022-07-23T22:18:45;19.00;94.30
5731;DHT22;2890;51.950;7.668;2022-07-23T22:21:11;18.90;94.90
5731;DHT22;2890;51.950;7.668;2022-07-23T22:23:38;18.80;95.20
5731;DHT22;2890;51.950;7.668;2022-07-23T22:26:05;18.80;96.00
5731;DHT22;2890;51.950;7.668;2022-07-23T22:28:32;18.70;95.90
5731;DHT22;2890;51.950;7.668;2022-07-23T22:30:58;18.70;96.20
5731;DHT22;2890;51.950;7.668;2022-07-23T22:33:27;18.70;96.50
5731;DHT22;2890;51.950;7.668;2022-07-23T22:35:53;18.70;96.60
5731;DHT22;2890;51.950;7.668;2022-07-23T22:38:20;18.70;96.70
5731;DHT22;2890;51.950;7.668;2022-07-23T22:40:47;18.60;97.30
5731;DHT22;2890;51.950;7.668;2022-07-23T22:43:13;18.60;97.80
5731;DHT22;2890;51.950;7.668;2022-07-23T22:45:40;18.60;98.20
5731;DHT22;2890;51.950;7.668;2022-07-23T22:48:07;18.50;98.40
5731;DHT22;2890;51.950;7.668;2022-07-23T22:50:35;18.50;98.60
5731;DHT22;2890;51.950;7.668;2022-07-23T22:53:01;18.50;99.00